sensor_id;sensor_type;location;lat;lon;timestamp;pressure;altitude;pressure_sealevel;temperature;humidity
20368;BME280;10343;52.402;9.796;2023-04-22T00:01:58;100483.13;;;24.37;28.28
20368;BME280;10343;52.402;9.796;2023-04-22T00:04:27;100483.69;;;23.53;29.53
20368;BME280;10343;52.402;9.796;2023-04-22T00:06:56;100475.38;;;24.00;29.26
20368;BME280;10343;52.402;9.796;2023-04-22T00:09:25;100478.91;;;24.44;28.41
20368;BME280;10343;52.402;9.796;2023-04-22T00:11:53;100470.94;;;23.99;28.75
20368;BME280;10343;52.402;9.796;2023-04-22T00:14:21;100468.38;;;23.74;29.09
20368;BME280;10343;52.402;9.796;2023-04-22T00:16:49;100465.41;;;24.33;28.65
20368;BME280;10343;52.402;9.796;2023-04-22T00:19:17;100461.78;;;24.11;28.75
20368;BME280;10343;52.402;9.796;2023-04-22T00:21:45;100459.16;;;23.77;29.50
20368;BME280;10343;52.402;9.796;2023-04-22T00:24:12;100455.75;;;23.52;29.93
20368;BME280;10343;52.402;9.796;2023-04-22T00:26:42;100448.19;;;24.22;28.92
20368;BME280;10343;52.402;9.796;2023-04-22T00:29:10;100442.25;;;24.82;28.14
20368;BME280;10343;52.402;9.796;2023-04-22T00:31:38;100448.13;;;23.01;30.23
20368;BME280;10343;52.402;9.796;2023-04-22T00:34:06;100437.94;;;22.46;31.15
20368;BME280;10343;52.402;9.796;2023-04-22T00:36:34;100436.44;;;24.12;29.06
20368;BME280;10343;52.402;9.796;2023-04-22T00:39:02;100449.84;;;23.36;29.87
20368;BME280;10343;52.402;9.796;2023-04-22T00:41:30;100445.06;;;23.17;30.16
20368;BME280;10343;52.402;9.796;2023-04-22T00:44:03;100450.69;;;23.59;29.90
20368;BME280;10343;52.402;9.796;2023-04-22T00:46:32;100450.09;;;23.55;29.97
20368;BME280;10343;52.402;9.796;2023-04-22T00:49:01;100445.88;;;23.74;29.76
20368;BME280;10343;52.402;9.796;2023-04-22T00:51:29;100442.91;;;24.21;29.20
20368;BME280;10343;52.402;9.796;2023-04-22T00:53:57;100450.09;;;23.10;30.25
20368;BME280;10343;52.402;9.796;2023-04-22T00:56:27;100446.91;;;23.50;30.12
20368;BME280;10343;52.402;9.796;2023-04-22T00:58:57;100455.25;;;21.95;32.00
20368;BME280;10343;52.402;9.796;2023-04-22T01:01:27;100453.66;;;22.41;31.65
20368;BME280;10343;52.402;9.796;2023-04-22T01:03:56;100456.19;;;22.07;32.00
20368;BME280;10343;52.402;9.796;2023-04-22T01:06:27;100460.91;;;22.16;31.86
20368;BME280;10343;52.402;9.796;2023-04-22T01:08:57;100461.88;;;22.15;32.12
20368;BME280;10343;52.402;9.796;2023-04-22T01:11:25;100452.25;;;22.82;31.39
20368;BME280;10343;52.402;9.796;2023-04-22T01:13:53;100449.41;;;22.72;31.55
20368;BME280;10343;52.402;9.796;2023-04-22T01:16:23;100449.78;;;22.68;31.40
20368;BME280;10343;52.402;9.796;2023-04-22T01:18:55;100455.53;;;23.33;30.58
20368;BME280;10343;52.402;9.796;2023-04-22T01:21:25;100455.09;;;22.10;32.13
20368;BME280;10343;52.402;9.796;2023-04-22T01:23:55;100452.63;;;21.82;32.88
20368;BME280;10343;52.402;9.796;2023-04-22T01:26:23;100450.31;;;22.73;31.54
20368;BME280;10343;52.402;9.796;2023-04-22T01:28:51;100455.38;;;22.42;31.85
20368;BME280;10343;52.402;9.796;2023-04-22T01:31:19;100457.41;;;22.03;32.59
20368;BME280;10343;52.402;9.796;2023-04-22T01:33:47;100451.72;;;21.95;32.45
20368;BME280;10343;52.402;9.796;2023-04-22T01:36:15;100451.13;;;21.78;32.75
20368;BME280;10343;52.402;9.796;2023-04-22T01:38:44;100452.25;;;22.00;32.78
20368;BME280;10343;52.402;9.796;2023-04-22T01:41:13;100457.00;;;21.59;33.50
20368;BME280;10343;52.402;9.796;2023-04-22T01:43:42;100456.38;;;21.43;33.51
20368;BME280;10343;52.402;9.796;2023-04-22T01:46:11;100460.31;;;21.26;33.79
20368;BME280;10343;52.402;9.796;2023-04-22T01:48:39;100451.88;;;22.29;32.71
20368;BME280;10343;52.402;9.796;2023-04-22T01:51:07;100454.53;;;21.93;32.68
20368;BME280;10343;52.402;9.796;2023-04-22T01:53:35;100450.25;;;22.26;32.33
20368;BME280;10343;52.402;9.796;2023-04-22T01:56:03;100449.28;;;22.63;32.07
20368;BME280;10343;52.402;9.796;2023-04-22T01:58:33;100447.16;;;21.71;33.33
20368;BME280;10343;52.402;9.796;2023-04-22T02:01:03;100439.13;;;22.78;31.52
20368;BME280;10343;52.402;9.796;2023-04-22T02:03:31;100439.00;;;22.90;31.71
20368;BME280;10343;52.402;9.796;2023-04-22T02:06:00;100436.81;;;23.41;30.96
20368;BME280;10343;52.402;9.796;2023-04-22T02:08:28;100439.75;;;22.81;31.26
20368;BME280;10343;52.402;9.796;2023-04-22T02:10:56;100442.44;;;22.10;32.75
20368;BME280;10343;52.402;9.796;2023-04-22T02:13:26;100444.69;;;23.10;31.32
20368;BME280;10343;52.402;9.796;2023-04-22T02:15:55;100443.84;;;22.51;32.09
20368;BME280;10343;52.402;9.796;2023-04-22T02:18:23;100433.59;;;22.90;31.33
20368;BME280;10343;52.402;9.796;2023-04-22T02:20:51;100428.47;;;23.10;31.13
20368;BME280;10343;52.402;9.796;2023-04-22T02:23:19;100438.66;;;21.88;32.99
20368;BME280;10343;52.402;9.796;2023-04-22T02:25:48;100430.28;;;22.29;32.51
20368;BME280;10343;52.402;9.796;2023-04-22T02:28:18;100435.25;;;22.46;31.90
20368;BME280;10343;52.402;9.796;2023-04-22T02:30:46;100441.03;;;21.43;33.37
20368;BME280;10343;52.402;9.796;2023-04-22T02:33:15;100431.66;;;22.93;31.71
20368;BME280;10343;52.402;9.796;2023-04-22T02:35:43;100425.19;;;22.48;32.01
20368;BME280;10343;52.402;9.796;2023-04-22T02:38:16;100424.09;;;22.27;32.42
20368;BME280;10343;52.402;9.796;2023-04-22T02:40:45;100427.53;;;21.69;33.40
20368;BME280;10343;52.402;9.796;2023-04-22T02:43:13;100434.69;;;20.81;35.11
20368;BME280;10343;52.402;9.796;2023-04-22T02:45:41;100431.16;;;21.31;34.17
20368;BME280;10343;52.402;9.796;2023-04-22T02:48:09;100427.47;;;21.58;33.99
20368;BME280;10343;52.402;9.796;2023-04-22T02:50:38;100425.06;;;21.16;34.68
20368;BME280;10343;52.402;9.796;2023-04-22T02:53:07;100414.94;;;21.57;33.99
20368;BME280;10343;52.402;9.796;2023-04-22T02:55:35;100412.09;;;21.71;33.60
20368;BME280;10343;52.402;9.796;2023-04-22T02:58:03;100416.78;;;22.29;32.75
20368;BME280;10343;52.402;9.796;2023-04-22T03:00:31;100417.63;;;22.29;32.85
20368;BME280;10343;52.402;9.796;2023-04-22T03:02:59;100409.56;;;21.44;34.04
20368;BME280;10343;52.402;9.796;2023-04-22T03:05:30;100418.63;;;21.43;34.25
20368;BME280;10343;52.402;9.796;2023-04-22T03:08:01;100417.84;;;20.78;35.20
20368;BME280;10343;52.402;9.796;2023-04-22T03:10:29;100404.78;;;21.47;34.05
20368;BME280;10343;52.402;9.796;2023-04-22T03:12:58;100403.28;;;21.43;34.20
20368;BME280;10343;52.402;9.796;2023-04-22T03:15:26;100404.66;;;21.86;33.62
20368;BME280;10343;52.402;9.796;2023-04-22T03:17:54;100411.69;;;20.76;35.23
20368;BME280;10343;52.402;9.796;2023-04-22T03:20:22;100395.13;;;21.32;34.49
20368;BME280;10343;52.402;9.796;2023-04-22T03:22:52;100403.09;;;21.33;34.50
20368;BME280;10343;52.402;9.796;2023-04-22T03:25:22;100401.03;;;20.74;35.33
20368;BME280;10343;52.402;9.796;2023-04-22T03:27:54;100398.53;;;21.60;34.41
20368;BME280;10343;52.402;9.796;2023-04-22T03:30:22;100397.84;;;21.69;33.78
20368;BME280;10343;52.402;9.796;2023-04-22T03:32:51;100393.44;;;22.28;32.79
20368;BME280;10343;52.402;9.796;2023-04-22T03:35:24;100393.09;;;21.73;33.94
20368;BME280;10343;52.402;9.796;2023-04-22T03:37:53;100395.78;;;21.73;33.85
20368;BME280;10343;52.402;9.796;2023-04-22T03:40:27;100397.06;;;20.93;34.96
20368;BME280;10343;52.402;9.796;2023-04-22T03:42:56;100385.00;;;21.23;34.76
20368;BME280;10343;52.402;9.796;2023-04-22T03:45:25;100391.09;;;21.50;34.42
20368;BME280;10343;52.402;9.796;2023-04-22T03:48:13;100397.13;;;22.02;33.54
20368;BME280;10343;52.402;9.796;2023-04-22T03:50:46;100403.84;;;22.21;33.31
20368;BME280;10343;52.402;9.796;2023-04-22T03:53:15;100403.75;;;21.98;33.43
20368;BME280;10343;52.402;9.796;2023-04-22T03:55:45;100409.09;;;20.48;35.61
20368;BME280;10343;52.402;9.796;2023-04-22T03:58:14;100414.81;;;20.57;35.78
20368;BME280;10343;52.402;9.796;2023-04-22T04:00:44;100401.19;;;21.23;34.93
20368;BME280;10343;52.402;9.796;2023-04-22T04:03:15;100399.53;;;20.83;35.29
20368;BME280;10343;52.402;9.796;2023-04-22T04:05:47;100400.38;;;21.83;33.87
20368;BME280;10343;52.402;9.796;2023-04-22T04:08:15;100407.28;;;21.87;33.73
20368;BME280;10343;52.402;9.796;2023-04-22T04:10:44;100416.66;;;20.95;35.05
20368;BME280;10343;52.402;9.796;2023-04-22T04:13:13;100406.19;;;20.64;35.77
20368;BME280;10343;52.402;9.796;2023-04-22T04:15:52;100412.19;;;20.29;36.41
20368;BME280;10343;52.402;9.796;2023-04-22T04:18:20;100402.03;;;21.36;34.45
20368;BME280;10343;52.402;9.796;2023-04-22T04:20:49;100404.66;;;20.60;35.81
20368;BME280;10343;52.402;9.796;2023-04-22T04:23:17;100401.31;;;20.31;36.50
20368;BME280;10343;52.402;9.796;2023-04-22T04:25:50;100402.53;;;20.52;36.20
20368;BME280;10343;52.402;9.796;2023-04-22T04:28:18;100391.91;;;21.27;35.02
20368;BME280;10343;52.402;9.796;2023-04-22T04:30:47;100394.13;;;20.96;35.27
20368;BME280;10343;52.402;9.796;2023-04-22T04:33:16;100393.03;;;21.48;34.72
20368;BME280;10343;52.402;9.796;2023-04-22T04:35:45;100393.06;;;20.85;35.85
20368;BME280;10343;52.402;9.796;2023-04-22T04:38:17;100394.81;;;21.36;35.00
20368;BME280;10343;52.402;9.796;2023-04-22T04:40:49;100385.84;;;21.73;34.78
20368;BME280;10343;52.402;9.796;2023-04-22T04:43:21;100386.94;;;21.33;35.01
20368;BME280;10343;52.402;9.796;2023-04-22T04:46:15;100381.81;;;21.17;34.95
20368;BME280;10343;52.402;9.796;2023-04-22T04:48:44;100377.53;;;21.76;34.47
20368;BME280;10343;52.402;9.796;2023-04-22T04:51:14;100375.47;;;21.43;34.63
20368;BME280;10343;52.402;9.796;2023-04-22T04:53:53;100375.22;;;22.07;33.49
20368;BME280;10343;52.402;9.796;2023-04-22T04:56:26;100375.56;;;21.54;34.37
20368;BME280;10343;52.402;9.796;2023-04-22T04:58:54;100381.03;;;21.89;34.04
20368;BME280;10343;52.402;9.796;2023-04-22T05:01:25;100375.34;;;21.81;34.13
20368;BME280;10343;52.402;9.796;2023-04-22T05:03:57;100377.22;;;21.68;34.44
20368;BME280;10343;52.402;9.796;2023-04-22T05:06:25;100372.16;;;22.70;33.10
20368;BME280;10343;52.402;9.796;2023-04-22T05:08:59;100370.81;;;22.17;33.67
20368;BME280;10343;52.402;9.796;2023-04-22T05:11:28;100375.00;;;22.68;32.99
20368;BME280;10343;52.402;9.796;2023-04-22T05:13:58;100379.25;;;21.77;34.35
20368;BME280;10343;52.402;9.796;2023-04-22T05:16:34;100379.78;;;22.18;33.88
20368;BME280;10343;52.402;9.796;2023-04-22T05:19:03;100382.06;;;22.00;34.06
20368;BME280;10343;52.402;9.796;2023-04-22T05:21:31;100376.81;;;22.10;33.76
20368;BME280;10343;52.402;9.796;2023-04-22T05:23:59;100379.59;;;23.13;32.57
20368;BME280;10343;52.402;9.796;2023-04-22T05:26:29;100378.22;;;23.74;31.42
20368;BME280;10343;52.402;9.796;2023-04-22T05:28:58;100375.38;;;23.43;32.05
20368;BME280;10343;52.402;9.796;2023-04-22T05:31:26;100384.19;;;24.21;30.69
20368;BME280;10343;52.402;9.796;2023-04-22T05:33:55;100379.91;;;23.43;32.07
20368;BME280;10343;52.402;9.796;2023-04-22T05:36:24;100389.44;;;22.09;33.78
20368;BME280;10343;52.402;9.796;2023-04-22T05:38:57;100383.09;;;21.86;34.46
20368;BME280;10343;52.402;9.796;2023-04-22T05:41:25;100386.56;;;22.23;33.96
20368;BME280;10343;52.402;9.796;2023-04-22T05:43:57;100388.50;;;22.57;33.16
20368;BME280;10343;52.402;9.796;2023-04-22T05:46:25;100389.94;;;22.38;33.60
20368;BME280;10343;52.402;9.796;2023-04-22T05:48:54;100392.34;;;22.30;33.77
20368;BME280;10343;52.402;9.796;2023-04-22T05:51:43;100392.38;;;22.06;33.99
20368;BME280;10343;52.402;9.796;2023-04-22T05:54:13;100388.63;;;22.67;33.46
20368;BME280;10343;52.402;9.796;2023-04-22T05:56:42;100393.59;;;22.02;34.18
20368;BME280;10343;52.402;9.796;2023-04-22T05:59:11;100388.38;;;22.59;33.70
20368;BME280;10343;52.402;9.796;2023-04-22T06:01:39;100377.19;;;23.86;31.81
20368;BME280;10343;52.402;9.796;2023-04-22T06:04:08;100378.59;;;23.14;32.77
20368;BME280;10343;52.402;9.796;2023-04-22T06:06:38;100375.66;;;24.05;31.26
20368;BME280;10343;52.402;9.796;2023-04-22T06:09:06;100374.66;;;23.30;32.85
20368;BME280;10343;52.402;9.796;2023-04-22T06:11:34;100377.91;;;23.56;32.35
20368;BME280;10343;52.402;9.796;2023-04-22T06:14:02;100378.56;;;23.03;32.90
20368;BME280;10343;52.402;9.796;2023-04-22T06:16:32;100377.19;;;23.86;32.04
20368;BME280;10343;52.402;9.796;2023-04-22T06:19:02;100376.66;;;24.46;30.99
20368;BME280;10343;52.402;9.796;2023-04-22T06:21:30;100368.72;;;24.75;30.71
20368;BME280;10343;52.402;9.796;2023-04-22T06:23:59;100372.81;;;23.74;31.90
20368;BME280;10343;52.402;9.796;2023-04-22T06:26:27;100379.91;;;23.86;31.76
20368;BME280;10343;52.402;9.796;2023-04-22T06:28:55;100374.63;;;23.85;31.67
20368;BME280;10343;52.402;9.796;2023-04-22T06:31:23;100373.38;;;24.64;31.09
20368;BME280;10343;52.402;9.796;2023-04-22T06:33:53;100373.25;;;23.90;31.92
20368;BME280;10343;52.402;9.796;2023-04-22T06:36:21;100369.22;;;25.31;30.04
20368;BME280;10343;52.402;9.796;2023-04-22T06:38:56;100371.72;;;25.13;30.54
20368;BME280;10343;52.402;9.796;2023-04-22T06:41:42;100368.25;;;25.42;30.14
20368;BME280;10343;52.402;9.796;2023-04-22T06:44:28;100356.03;;;26.16;28.97
20368;BME280;10343;52.402;9.796;2023-04-22T06:47:32;100354.19;;;27.11;27.64
20368;BME280;10343;52.402;9.796;2023-04-22T06:50:16;100352.03;;;27.05;28.22
20368;BME280;10343;52.402;9.796;2023-04-22T06:52:49;100361.88;;;26.31;28.75
20368;BME280;10343;52.402;9.796;2023-04-22T06:55:17;100348.47;;;27.05;27.92
20368;BME280;10343;52.402;9.796;2023-04-22T06:57:45;100352.31;;;24.56;31.00
20368;BME280;10343;52.402;9.796;2023-04-22T07:00:13;100330.16;;;25.53;30.19
20368;BME280;10343;52.402;9.796;2023-04-22T07:02:41;100331.19;;;26.58;28.96
20368;BME280;10343;52.402;9.796;2023-04-22T07:05:09;100334.63;;;26.70;28.85
20368;BME280;10343;52.402;9.796;2023-04-22T07:07:40;100336.41;;;26.89;28.43
20368;BME280;10343;52.402;9.796;2023-04-22T07:10:14;100339.47;;;26.76;28.45
20368;BME280;10343;52.402;9.796;2023-04-22T07:12:56;100344.38;;;26.53;28.84
20368;BME280;10343;52.402;9.796;2023-04-22T07:15:24;100338.75;;;29.42;25.89
20368;BME280;10343;52.402;9.796;2023-04-22T07:17:52;100337.19;;;28.36;26.61
20368;BME280;10343;52.402;9.796;2023-04-22T07:20:21;100343.50;;;26.53;29.04
20368;BME280;10343;52.402;9.796;2023-04-22T07:22:51;100341.16;;;26.68;28.82
20368;BME280;10343;52.402;9.796;2023-04-22T07:25:19;100336.03;;;26.65;29.06
20368;BME280;10343;52.402;9.796;2023-04-22T07:27:47;100340.88;;;25.84;30.38
20368;BME280;10343;52.402;9.796;2023-04-22T07:30:15;100329.78;;;25.27;31.17
20368;BME280;10343;52.402;9.796;2023-04-22T07:32:43;100328.03;;;26.63;29.26
20368;BME280;10343;52.402;9.796;2023-04-22T07:35:14;100330.28;;;25.91;30.41
20368;BME280;10343;52.402;9.796;2023-04-22T07:37:42;100331.16;;;26.01;30.40
20368;BME280;10343;52.402;9.796;2023-04-22T07:40:12;100332.06;;;26.97;29.41
20368;BME280;10343;52.402;9.796;2023-04-22T07:42:40;100330.31;;;26.10;30.64
20368;BME280;10343;52.402;9.796;2023-04-22T07:45:08;100327.72;;;26.66;29.92
20368;BME280;10343;52.402;9.796;2023-04-22T07:47:36;100327.25;;;26.33;30.53
20368;BME280;10343;52.402;9.796;2023-04-22T07:50:05;100318.66;;;27.13;29.49
20368;BME280;10343;52.402;9.796;2023-04-22T07:52:33;100317.47;;;26.60;30.25
20368;BME280;10343;52.402;9.796;2023-04-22T07:55:02;100318.91;;;27.20;29.64
20368;BME280;10343;52.402;9.796;2023-04-22T07:57:31;100330.16;;;26.12;30.95
20368;BME280;10343;52.402;9.796;2023-04-22T08:00:05;100330.94;;;26.42;30.60
20368;BME280;10343;52.402;9.796;2023-04-22T08:02:42;100315.63;;;27.16;29.39
20368;BME280;10343;52.402;9.796;2023-04-22T08:05:10;100310.31;;;28.15;28.83
20368;BME280;10343;52.402;9.796;2023-04-22T08:07:38;100324.22;;;28.29;28.27
20368;BME280;10343;52.402;9.796;2023-04-22T08:10:07;100322.84;;;28.25;27.90
20368;BME280;10343;52.402;9.796;2023-04-22T08:12:36;100322.72;;;28.96;26.59
20368;BME280;10343;52.402;9.796;2023-04-22T08:15:05;100315.19;;;29.41;26.02
20368;BME280;10343;52.402;9.796;2023-04-22T08:17:34;100321.91;;;29.12;26.38
20368;BME280;10343;52.402;9.796;2023-04-22T08:20:02;100321.41;;;28.66;27.07
20368;BME280;10343;52.402;9.796;2023-04-22T08:22:33;100318.84;;;29.82;25.80
20368;BME280;10343;52.402;9.796;2023-04-22T08:25:02;100307.38;;;29.79;25.60
20368;BME280;10343;52.402;9.796;2023-04-22T08:27:30;100324.22;;;28.56;27.07
20368;BME280;10343;52.402;9.796;2023-04-22T08:29:59;100323.41;;;28.37;26.86
20368;BME280;10343;52.402;9.796;2023-04-22T08:32:27;100314.41;;;29.73;25.50
20368;BME280;10343;52.402;9.796;2023-04-22T08:34:55;100315.25;;;29.82;25.14
20368;BME280;10343;52.402;9.796;2023-04-22T08:37:30;100313.94;;;30.75;24.23
20368;BME280;10343;52.402;9.796;2023-04-22T08:39:58;100313.69;;;30.93;23.81
20368;BME280;10343;52.402;9.796;2023-04-22T08:42:26;100326.94;;;28.56;26.66
20368;BME280;10343;52.402;9.796;2023-04-22T08:44:54;100322.66;;;28.53;26.80
20368;BME280;10343;52.402;9.796;2023-04-22T08:47:24;100315.94;;;30.17;24.90
20368;BME280;10343;52.402;9.796;2023-04-22T08:49:54;100315.88;;;31.92;23.09
20368;BME280;10343;52.402;9.796;2023-04-22T08:52:22;100314.72;;;31.87;22.92
20368;BME280;10343;52.402;9.796;2023-04-22T08:54:50;100309.81;;;32.20;22.95
20368;BME280;10343;52.402;9.796;2023-04-22T08:57:18;100314.94;;;29.85;24.98
20368;BME280;10343;52.402;9.796;2023-04-22T08:59:47;100320.22;;;29.11;26.03
20368;BME280;10343;52.402;9.796;2023-04-22T09:02:19;100305.19;;;29.66;25.63
20368;BME280;10343;52.402;9.796;2023-04-22T09:04:51;100297.50;;;29.86;25.91
20368;BME280;10343;52.402;9.796;2023-04-22T09:07:22;100292.00;;;30.92;24.19
20368;BME280;10343;52.402;9.796;2023-04-22T09:09:51;100290.91;;;31.41;23.75
20368;BME280;10343;52.402;9.796;2023-04-22T09:12:19;100293.38;;;30.31;24.92
20368;BME280;10343;52.402;9.796;2023-04-22T09:14:47;100289.28;;;30.27;24.89
20368;BME280;10343;52.402;9.796;2023-04-22T09:17:16;100279.63;;;30.64;24.45
20368;BME280;10343;52.402;9.796;2023-04-22T09:19:44;100279.06;;;32.10;23.26
20368;BME280;10343;52.402;9.796;2023-04-22T09:22:14;100280.22;;;32.60;22.26
20368;BME280;10343;52.402;9.796;2023-04-22T09:24:43;100283.19;;;32.29;22.67
20368;BME280;10343;52.402;9.796;2023-04-22T09:27:15;100276.53;;;31.85;23.10
20368;BME280;10343;52.402;9.796;2023-04-22T09:29:47;100272.91;;;30.11;24.96
20368;BME280;10343;52.402;9.796;2023-04-22T09:32:16;100270.47;;;30.49;24.60
20368;BME280;10343;52.402;9.796;2023-04-22T09:34:47;100267.44;;;29.94;24.92
20368;BME280;10343;52.402;9.796;2023-04-22T09:37:19;100271.03;;;31.39;23.59
20368;BME280;10343;52.402;9.796;2023-04-22T09:39:52;100265.97;;;34.31;21.20
20368;BME280;10343;52.402;9.796;2023-04-22T09:42:21;100260.97;;;33.85;21.26
20368;BME280;10343;52.402;9.796;2023-04-22T09:44:51;100263.88;;;32.22;22.38
20368;BME280;10343;52.402;9.796;2023-04-22T09:47:19;100264.63;;;32.31;22.77
20368;BME280;10343;52.402;9.796;2023-04-22T09:49:49;100257.53;;;31.14;24.01
20368;BME280;10343;52.402;9.796;2023-04-22T09:52:22;100252.97;;;31.29;23.87
20368;BME280;10343;52.402;9.796;2023-04-22T09:54:53;100259.72;;;30.31;25.30
20368;BME280;10343;52.402;9.796;2023-04-22T09:57:22;100248.75;;;30.87;24.65
20368;BME280;10343;52.402;9.796;2023-04-22T10:00:00;100250.75;;;30.93;24.63
20368;BME280;10343;52.402;9.796;2023-04-22T10:02:33;100255.50;;;30.68;25.03
20368;BME280;10343;52.402;9.796;2023-04-22T10:05:01;100243.91;;;32.28;23.08
20368;BME280;10343;52.402;9.796;2023-04-22T10:07:32;100235.06;;;32.93;22.46
20368;BME280;10343;52.402;9.796;2023-04-22T10:10:00;100236.63;;;32.35;22.94
20368;BME280;10343;52.402;9.796;2023-04-22T10:12:29;100238.56;;;32.12;23.45
20368;BME280;10343;52.402;9.796;2023-04-22T10:15:02;100236.19;;;31.94;23.24
20368;BME280;10343;52.402;9.796;2023-04-22T10:17:31;100237.59;;;31.28;23.82
20368;BME280;10343;52.402;9.796;2023-04-22T10:20:02;100227.56;;;32.35;23.18
20368;BME280;10343;52.402;9.796;2023-04-22T10:22:33;100229.50;;;31.12;24.27
20368;BME280;10343;52.402;9.796;2023-04-22T10:25:02;100222.06;;;31.44;23.70
20368;BME280;10343;52.402;9.796;2023-04-22T10:27:30;100212.44;;;34.76;20.47
20368;BME280;10343;52.402;9.796;2023-04-22T10:29:58;100218.63;;;34.08;21.19
20368;BME280;10343;52.402;9.796;2023-04-22T10:32:26;100222.44;;;30.46;24.30
20368;BME280;10343;52.402;9.796;2023-04-22T10:35:09;100221.38;;;31.65;23.30
20368;BME280;10343;52.402;9.796;2023-04-22T10:37:42;100221.03;;;32.51;22.45
20368;BME280;10343;52.402;9.796;2023-04-22T10:40:14;100220.09;;;31.29;23.56
20368;BME280;10343;52.402;9.796;2023-04-22T10:42:47;100216.09;;;33.56;21.40
20368;BME280;10343;52.402;9.796;2023-04-22T10:45:16;100206.94;;;33.49;21.09
20368;BME280;10343;52.402;9.796;2023-04-22T10:47:44;100207.81;;;34.06;20.56
20368;BME280;10343;52.402;9.796;2023-04-22T10:50:18;100212.38;;;33.42;20.90
20368;BME280;10343;52.402;9.796;2023-04-22T10:52:50;100196.72;;;34.63;20.01
20368;BME280;10343;52.402;9.796;2023-04-22T10:55:19;100191.38;;;35.16;19.26
20368;BME280;10343;52.402;9.796;2023-04-22T10:57:49;100207.88;;;31.17;22.90
20368;BME280;10343;52.402;9.796;2023-04-22T11:00:26;100198.66;;;31.79;22.60
20368;BME280;10343;52.402;9.796;2023-04-22T11:03:10;100198.97;;;32.59;21.62
20368;BME280;10343;52.402;9.796;2023-04-22T11:05:40;100192.28;;;32.17;22.09
20368;BME280;10343;52.402;9.796;2023-04-22T11:08:14;100189.75;;;32.82;21.45
20368;BME280;10343;52.402;9.796;2023-04-22T11:10:47;100190.16;;;31.89;22.42
20368;BME280;10343;52.402;9.796;2023-04-22T11:13:17;100182.06;;;33.14;21.40
20368;BME280;10343;52.402;9.796;2023-04-22T11:15:47;100178.03;;;32.88;21.31
20368;BME280;10343;52.402;9.796;2023-04-22T11:18:18;100180.34;;;32.70;21.53
20368;BME280;10343;52.402;9.796;2023-04-22T11:20:47;100180.13;;;34.43;20.00
20368;BME280;10343;52.402;9.796;2023-04-22T11:23:19;100186.91;;;31.71;22.29
20368;BME280;10343;52.402;9.796;2023-04-22T11:25:47;100175.31;;;30.67;23.47
20368;BME280;10343;52.402;9.796;2023-04-22T11:28:20;100164.94;;;32.90;21.30
20368;BME280;10343;52.402;9.796;2023-04-22T11:30:49;100169.53;;;33.26;20.94
20368;BME280;10343;52.402;9.796;2023-04-22T11:33:18;100167.16;;;31.37;22.84
20368;BME280;10343;52.402;9.796;2023-04-22T11:35:48;100177.25;;;32.43;22.04
20368;BME280;10343;52.402;9.796;2023-04-22T11:38:18;100167.66;;;31.94;22.58
20368;BME280;10343;52.402;9.796;2023-04-22T11:40:46;100161.72;;;32.50;21.99
20368;BME280;10343;52.402;9.796;2023-04-22T11:43:15;100162.38;;;31.16;23.16
20368;BME280;10343;52.402;9.796;2023-04-22T11:45:44;100156.47;;;30.73;23.85
20368;BME280;10343;52.402;9.796;2023-04-22T11:48:13;100148.47;;;33.12;21.56
20368;BME280;10343;52.402;9.796;2023-04-22T11:50:42;100145.72;;;34.74;20.38
20368;BME280;10343;52.402;9.796;2023-04-22T11:53:15;100136.19;;;33.29;21.30
20368;BME280;10343;52.402;9.796;2023-04-22T11:55:48;100142.53;;;33.30;21.79
20368;BME280;10343;52.402;9.796;2023-04-22T11:58:18;100136.38;;;34.61;20.41
20368;BME280;10343;52.402;9.796;2023-04-22T12:00:48;100131.72;;;34.68;20.25
20368;BME280;10343;52.402;9.796;2023-04-22T12:03:18;100126.66;;;34.17;20.58
20368;BME280;10343;52.402;9.796;2023-04-22T12:05:50;100138.69;;;34.64;19.96
20368;BME280;10343;52.402;9.796;2023-04-22T12:08:21;100141.00;;;34.54;20.33
20368;BME280;10343;52.402;9.796;2023-04-22T12:10:51;100134.25;;;32.65;21.55
20368;BME280;10343;52.402;9.796;2023-04-22T12:13:21;100141.78;;;31.96;22.27
20368;BME280;10343;52.402;9.796;2023-04-22T12:15:53;100131.28;;;32.00;22.37
20368;BME280;10343;52.402;9.796;2023-04-22T12:18:27;100131.34;;;34.23;20.23
20368;BME280;10343;52.402;9.796;2023-04-22T12:20:58;100123.59;;;35.35;19.50
20368;BME280;10343;52.402;9.796;2023-04-22T12:23:27;100120.59;;;35.30;19.50
20368;BME280;10343;52.402;9.796;2023-04-22T12:25:56;100123.38;;;35.03;19.67
20368;BME280;10343;52.402;9.796;2023-04-22T12:28:24;100126.56;;;32.39;22.19
20368;BME280;10343;52.402;9.796;2023-04-22T12:30:52;100105.59;;;35.13;20.03
20368;BME280;10343;52.402;9.796;2023-04-22T12:33:20;100111.19;;;34.71;20.36
20368;BME280;10343;52.402;9.796;2023-04-22T12:35:48;100115.31;;;35.62;18.98
20368;BME280;10343;52.402;9.796;2023-04-22T12:38:18;100115.13;;;35.50;19.15
20368;BME280;10343;52.402;9.796;2023-04-22T12:40:46;100105.63;;;37.02;18.27
20368;BME280;10343;52.402;9.796;2023-04-22T12:43:16;100104.09;;;36.75;18.14
20368;BME280;10343;52.402;9.796;2023-04-22T12:45:44;100111.03;;;34.24;19.71
20368;BME280;10343;52.402;9.796;2023-04-22T12:48:13;100103.41;;;34.19;20.23
20368;BME280;10343;52.402;9.796;2023-04-22T12:50:41;100097.44;;;34.16;19.95
20368;BME280;10343;52.402;9.796;2023-04-22T12:53:09;100094.94;;;35.83;18.90
20368;BME280;10343;52.402;9.796;2023-04-22T12:55:37;100105.66;;;33.74;20.35
20368;BME280;10343;52.402;9.796;2023-04-22T12:58:06;100096.50;;;33.60;20.76
20368;BME280;10343;52.402;9.796;2023-04-22T13:00:36;100087.50;;;34.77;19.73
20368;BME280;10343;52.402;9.796;2023-04-22T13:03:04;100085.25;;;32.10;21.85
20368;BME280;10343;52.402;9.796;2023-04-22T13:05:32;100093.13;;;33.65;20.69